createdAt,value
2022-12-04T00:01:08.216Z,22.17
2022-12-04T00:03:35.668Z,23.27
2022-12-04T00:06:13.183Z,24.67
2022-12-04T00:08:40.661Z,22.38
2022-12-04T00:11:09.278Z,22.02
2022-12-04T00:13:37.731Z,22.45
2022-12-04T00:16:06.351Z,20.77
2022-12-04T00:18:33.961Z,21.33
2022-12-04T00:21:05.169Z,22.35
2022-12-04T00:23:32.798Z,22.80
2022-12-04T00:26:05.516Z,23.25
2022-12-04T00:28:33.932Z,21.65
2022-12-04T00:31:04.739Z,23.67
2022-12-04T00:33:31.727Z,22.90
2022-12-04T00:35:59.404Z,22.15
2022-12-04T00:38:27.140Z,23.73
2022-12-04T00:40:54.640Z,22.15
2022-12-04T00:43:22.916Z,25.10
2022-12-04T00:45:50.673Z,20.35
2022-12-04T00:48:17.739Z,23.42
2022-12-04T00:50:44.950Z,22.65
2022-12-04T00:53:12.587Z,23.17
2022-12-04T00:55:40.810Z,24.60
2022-12-04T00:58:08.040Z,22.70
2022-12-04T01:00:36.527Z,22.13
2022-12-04T01:03:04.410Z,22.10
2022-12-04T01:05:32.373Z,22.25
2022-12-04T01:07:59.453Z,22.85
2022-12-04T01:10:26.740Z,23.13
2022-12-04T01:12:53.768Z,20.92
2022-12-04T01:15:20.788Z,21.25
2022-12-04T01:17:47.777Z,22.45
2022-12-04T01:20:15.859Z,20.73
2022-12-04T01:22:42.895Z,20.98
2022-12-04T01:25:10.203Z,24.08
2022-12-04T01:27:37.230Z,21.98
2022-12-04T01:30:05.383Z,20.50
2022-12-04T01:32:32.419Z,23.08
2022-12-04T01:34:59.518Z,22.35
2022-12-04T01:37:26.597Z,18.42
2022-12-04T01:39:53.913Z,19.83
2022-12-04T01:42:21.240Z,20.15
2022-12-04T01:45:26.031Z,21.85
2022-12-04T01:47:57.169Z,19.67
2022-12-04T01:50:24.966Z,18.63
2022-12-04T01:52:52.086Z,18.10
2022-12-04T01:55:19.192Z,19.48
2022-12-04T01:57:47.111Z,18.45
2022-12-04T02:00:16.750Z,18.90
2022-12-04T02:02:46.917Z,16.00
2022-12-04T02:05:17.535Z,17.98
2022-12-04T02:07:47.721Z,19.90
2022-12-04T02:10:17.530Z,15.63
2022-12-04T02:12:51.561Z,17.08
2022-12-04T02:15:48.593Z,17.20
2022-12-04T02:18:24.467Z,14.70
2022-12-04T02:21:06.769Z,17.17
2022-12-04T02:24:01.352Z,18.42
2022-12-04T02:26:50.144Z,17.35
2022-12-04T02:29:34.973Z,17.75
2022-12-04T02:32:29.275Z,19.15
2022-12-04T02:35:01.286Z,20.85
2022-12-04T02:37:37.324Z,20.67
2022-12-04T02:40:10.387Z,19.23
2022-12-04T02:42:50.064Z,20.65
2022-12-04T02:45:31.897Z,21.00
2022-12-04T02:48:02.597Z,21.58
2022-12-04T02:50:31.705Z,21.65
2022-12-04T02:53:07.906Z,20.30
2022-12-04T02:55:44.210Z,20.02
2022-12-04T02:58:35.107Z,21.98
2022-12-04T03:01:18.241Z,21.95
2022-12-04T03:03:57.471Z,21.67
2022-12-04T03:06:27.450Z,22.23
2022-12-04T03:09:01.950Z,21.42
2022-12-04T03:11:34.322Z,21.13
2022-12-04T03:14:14.430Z,19.92
2022-12-04T03:16:42.651Z,20.00
2022-12-04T03:19:10.138Z,21.73
2022-12-04T03:21:41.880Z,22.50
2022-12-04T03:24:37.120Z,21.90
2022-12-04T03:27:09.160Z,21.05
2022-12-04T03:29:41.456Z,19.40
2022-12-04T03:32:13.351Z,19.88
2022-12-04T03:34:46.498Z,19.63
2022-12-04T03:37:20.310Z,18.80
2022-12-04T03:40:30.926Z,18.92
2022-12-04T03:43:14.105Z,19.40
2022-12-04T03:45:53.046Z,19.13
2022-12-04T03:48:28.594Z,15.25
2022-12-04T03:51:12.607Z,16.83
2022-12-04T03:53:52.820Z,15.85
2022-12-04T03:56:40.017Z,20.70
2022-12-04T03:59:20.888Z,18.45
2022-12-04T04:01:51.106Z,20.70
2022-12-04T04:04:36.124Z,21.77
2022-12-04T04:07:13.967Z,22.77
2022-12-04T04:09:45.667Z,21.60
2022-12-04T04:12:18.501Z,19.85
2022-12-04T04:15:32.717Z,22.38
2022-12-04T04:18:20.304Z,21.35
2022-12-04T04:21:19.003Z,23.50
2022-12-04T04:24:09.320Z,22.13
2022-12-04T04:26:42.313Z,22.27
2022-12-04T04:29:11.041Z,24.83
2022-12-04T04:32:13.717Z,22.15
2022-12-04T04:34:54.465Z,22.08
2022-12-04T04:37:30.457Z,22.92
2022-12-04T04:40:15.603Z,21.92
2022-12-04T04:42:51.201Z,22.58
2022-12-04T04:45:35.759Z,22.25
2022-12-04T04:48:28.421Z,24.35
2022-12-04T04:50:55.958Z,24.25
2022-12-04T04:53:31.320Z,23.75
2022-12-04T04:55:59.668Z,22.83
2022-12-04T04:58:26.671Z,25.38
2022-12-04T05:00:58.440Z,24.00
2022-12-04T05:03:26.479Z,24.15
2022-12-04T05:05:53.466Z,23.38
2022-12-04T05:08:20.930Z,24.33
2022-12-04T05:10:48.078Z,23.92
2022-12-04T05:13:15.876Z,23.95
2022-12-04T05:15:43.009Z,24.55
2022-12-04T05:18:10.968Z,23.98
2022-12-04T05:20:41.250Z,24.17
2022-12-04T05:23:08.264Z,24.13
2022-12-04T05:25:35.219Z,23.70
2022-12-04T05:28:02.179Z,22.75
2022-12-04T05:30:29.247Z,22.00
2022-12-04T05:32:56.222Z,24.50
2022-12-04T05:35:23.162Z,26.25
2022-12-04T05:37:50.160Z,23.27
2022-12-04T05:40:17.401Z,24.85
2022-12-04T05:42:44.446Z,23.95
2022-12-04T05:45:11.622Z,24.60
2022-12-04T05:47:43.507Z,22.50
2022-12-04T05:50:12.395Z,23.00
2022-12-04T05:52:39.408Z,22.77
2022-12-04T05:55:07.024Z,23.10
2022-12-04T05:57:34.060Z,21.67
2022-12-04T06:00:01.067Z,23.42
2022-12-04T06:02:28.089Z,23.45
2022-12-04T06:04:55.095Z,22.55
2022-12-04T06:07:22.174Z,24.25
2022-12-04T06:09:49.161Z,22.85
2022-12-04T06:12:16.222Z,22.73
2022-12-04T06:14:43.204Z,23.42
2022-12-04T06:17:10.139Z,22.98
2022-12-04T06:19:37.222Z,21.20
2022-12-04T06:22:04.171Z,21.10
2022-12-04T06:24:31.392Z,20.75
2022-12-04T06:29:46.588Z,21.73
2022-12-04T06:32:19.501Z,22.13
2022-12-04T06:34:53.189Z,23.00
2022-12-04T06:37:21.991Z,24.17
2022-12-04T06:39:49.274Z,20.30
2022-12-04T06:42:16.804Z,21.45
2022-12-04T06:44:43.835Z,22.40
2022-12-04T06:47:11.026Z,22.05
2022-12-04T06:49:38.454Z,21.10
2022-12-04T06:52:05.443Z,22.85
2022-12-04T06:54:32.447Z,23.23
2022-12-04T06:56:59.570Z,21.05
2022-12-04T06:59:26.697Z,23.65
2022-12-04T07:01:53.692Z,21.92
2022-12-04T07:04:21.130Z,22.50
2022-12-04T07:06:48.104Z,21.95
2022-12-04T07:09:17.154Z,21.90
2022-12-04T07:11:45.356Z,19.48
2022-12-04T07:14:13.459Z,23.38
2022-12-04T07:16:42.365Z,22.17
2022-12-04T07:19:14.257Z,21.90
2022-12-04T07:21:42.548Z,24.17
2022-12-04T07:24:16.404Z,20.30
2022-12-04T07:26:43.560Z,22.73
2022-12-04T07:29:10.905Z,22.85
2022-12-04T07:31:38.767Z,21.45
2022-12-04T07:34:06.055Z,19.92
2022-12-04T07:36:33.133Z,21.30
2022-12-04T07:39:00.303Z,19.30
2022-12-04T07:41:27.300Z,19.67
2022-12-04T07:43:55.037Z,20.17
2022-12-04T07:46:25.531Z,20.50
2022-12-04T07:48:53.028Z,21.88
2022-12-04T07:51:22.680Z,20.02
2022-12-04T07:53:51.452Z,19.25
2022-12-04T07:56:19.256Z,20.77
2022-12-04T07:58:46.941Z,20.20
2022-12-04T08:01:17.798Z,20.35
2022-12-04T08:03:48.453Z,18.95
2022-12-04T08:06:19.198Z,20.42
2022-12-04T08:08:47.457Z,19.70
2022-12-04T08:11:17.959Z,19.13
2022-12-04T08:13:45.504Z,19.33
2022-12-04T08:16:13.478Z,19.80
2022-12-04T08:18:41.728Z,19.00
2022-12-04T08:21:14.395Z,19.75
2022-12-04T08:23:43.930Z,18.48
2022-12-04T08:26:11.933Z,20.70
2022-12-04T08:28:40.288Z,20.50
2022-12-04T08:31:13.134Z,20.05
2022-12-04T08:33:41.193Z,20.40
2022-12-04T08:36:10.347Z,17.90
2022-12-04T08:38:37.577Z,17.75
2022-12-04T08:41:07.229Z,17.42
2022-12-04T08:43:35.149Z,19.45
2022-12-04T08:46:08.149Z,20.20
2022-12-04T08:48:35.366Z,18.67
2022-12-04T08:51:04.506Z,21.52
2022-12-04T08:53:32.536Z,17.90
2022-12-04T08:56:01.735Z,19.15
2022-12-04T08:58:29.402Z,19.35
2022-12-04T09:01:00.256Z,19.65
2022-12-04T09:03:30.979Z,18.52
2022-12-04T09:06:04.520Z,19.02
2022-12-04T09:08:33.597Z,18.58
2022-12-04T09:11:09.745Z,17.70
2022-12-04T09:13:44.026Z,19.77
2022-12-04T09:16:15.414Z,18.40
2022-12-04T09:18:46.941Z,16.95
2022-12-04T09:21:17.042Z,18.40
2022-12-04T09:23:45.897Z,17.90
2022-12-04T09:26:29.410Z,18.02
2022-12-04T09:29:00.357Z,17.60
2022-12-04T09:31:28.463Z,17.33
2022-12-04T09:34:01.266Z,17.70
2022-12-04T09:36:29.625Z,17.08
2022-12-04T09:38:59.350Z,17.45
2022-12-04T09:41:45.340Z,16.60
2022-12-04T09:44:29.172Z,16.60
2022-12-04T09:47:14.812Z,17.15
2022-12-04T09:50:08.896Z,16.25
2022-12-04T09:52:56.932Z,16.05
2022-12-04T09:55:34.207Z,18.05
2022-12-04T09:58:05.444Z,16.35
2022-12-04T10:00:39.135Z,16.63
2022-12-04T10:03:13.098Z,16.10
2022-12-04T10:06:27.826Z,16.65
2022-12-04T10:09:06.299Z,16.30
2022-12-04T10:11:46.576Z,16.10
2022-12-04T10:14:51.112Z,16.88
2022-12-04T10:17:30.854Z,15.50
2022-12-04T10:20:41.492Z,13.80
2022-12-04T10:23:27.414Z,17.27
2022-12-04T10:25:56.017Z,16.60
2022-12-04T10:28:37.131Z,16.52
2022-12-04T10:31:07.887Z,15.98
2022-12-04T10:33:43.907Z,17.25
2022-12-04T10:36:16.771Z,15.85
2022-12-04T10:39:00.519Z,15.80
2022-12-04T10:41:53.164Z,15.57
2022-12-04T10:44:21.034Z,12.90
2022-12-04T10:46:49.589Z,15.23
2022-12-04T10:49:24.307Z,14.55
2022-12-04T10:51:51.322Z,15.57
2022-12-04T10:54:23.078Z,16.48
2022-12-04T10:56:58.739Z,14.88
2022-12-04T10:59:27.355Z,16.17
2022-12-04T11:02:06.735Z,16.80
2022-12-04T11:04:36.071Z,15.05
2022-12-04T11:07:37.308Z,14.00
2022-12-04T11:10:22.128Z,16.08
2022-12-04T11:13:16.608Z,15.23
2022-12-04T11:15:51.571Z,16.50
2022-12-04T11:18:31.112Z,14.00
2022-12-04T11:21:04.805Z,15.00
2022-12-04T11:23:47.597Z,15.85
2022-12-04T11:26:16.975Z,14.63
2022-12-04T11:28:54.069Z,14.77
2022-12-04T11:31:24.656Z,15.35
2022-12-04T11:33:59.347Z,15.10
2022-12-04T11:36:44.929Z,14.65
2022-12-04T11:39:31.657Z,14.35
2022-12-04T11:42:06.847Z,15.52
2022-12-04T11:44:37.391Z,15.88
2022-12-04T11:47:07.412Z,15.70
2022-12-04T11:49:39.525Z,15.35
2022-12-04T11:52:34.747Z,15.52
2022-12-04T11:55:13.121Z,12.55
2022-12-04T11:57:47.139Z,14.70
2022-12-04T12:00:26.551Z,16.88
2022-12-04T12:03:03.725Z,14.52
2022-12-04T12:05:49.574Z,14.93
2022-12-04T12:08:31.705Z,16.42
2022-12-04T12:11:26.790Z,15.35
2022-12-04T12:14:22.854Z,14.85
2022-12-04T12:17:17.775Z,15.02
2022-12-04T12:20:15.838Z,14.48
2022-12-04T12:22:52.306Z,15.10
2022-12-04T12:25:19.334Z,15.05
2022-12-04T12:27:55.582Z,14.40
2022-12-04T12:30:25.147Z,14.00
2022-12-04T12:33:04.406Z,16.02
2022-12-04T12:35:44.975Z,16.08
2022-12-04T12:38:47.817Z,15.32
2022-12-04T12:41:24.101Z,15.40
2022-12-04T12:44:06.489Z,15.30
2022-12-04T12:47:01.958Z,13.27
2022-12-04T12:49:40.175Z,14.63
2022-12-04T12:52:29.365Z,14.07
2022-12-04T12:55:05.357Z,14.63
2022-12-04T12:57:40.306Z,14.60
2022-12-04T13:00:16.490Z,14.65
2022-12-04T13:03:06.529Z,15.15
2022-12-04T13:05:44.149Z,15.20
2022-12-04T13:08:23.383Z,15.55
2022-12-04T13:11:18.102Z,16.02
2022-12-04T13:13:53.243Z,14.35
2022-12-04T13:16:27.137Z,15.32
2022-12-04T13:19:09.279Z,15.32
2022-12-04T13:21:45.636Z,15.25
2022-12-04T13:24:42.707Z,14.30
2022-12-04T13:27:29.274Z,15.00
2022-12-04T13:30:17.306Z,14.70
2022-12-04T13:33:14.642Z,14.27
2022-12-04T13:36:04.151Z,14.45
2022-12-04T13:38:33.886Z,13.30
2022-12-04T13:41:07.109Z,15.02
2022-12-04T13:43:42.016Z,12.98
2022-12-04T13:46:40.377Z,14.18
2022-12-04T13:49:17.872Z,12.82
2022-12-04T13:51:51.486Z,11.60
2022-12-04T13:54:20.994Z,13.55
2022-12-04T13:56:57.956Z,10.20
2022-12-04T13:59:28.367Z,12.32
2022-12-04T14:02:17.218Z,12.23
2022-12-04T14:05:01.284Z,9.80
2022-12-04T14:07:34.016Z,10.55
2022-12-04T14:10:09.298Z,11.32
2022-12-04T14:12:41.573Z,10.40
2022-12-04T14:15:25.145Z,9.35
2022-12-04T14:18:11.225Z,9.77
2022-12-04T14:20:42.629Z,11.02
2022-12-04T14:23:23.192Z,10.85
2022-12-04T14:25:51.622Z,9.73
2022-12-04T14:28:38.662Z,11.30
2022-12-04T14:31:09.232Z,9.77
2022-12-04T14:33:44.440Z,10.95
2022-12-04T14:36:37.632Z,9.40
2022-12-04T14:39:08.217Z,9.77
2022-12-04T14:41:35.619Z,11.13
2022-12-04T14:44:03.639Z,12.40
2022-12-04T14:46:34.623Z,10.20
2022-12-04T14:49:23.594Z,10.63
2022-12-04T14:52:01.802Z,11.27
2022-12-04T14:54:38.387Z,10.85
2022-12-04T14:57:33.717Z,10.32
2022-12-04T15:00:02.182Z,10.73
2022-12-04T15:02:34.741Z,11.30
2022-12-04T15:05:03.567Z,11.20
2022-12-04T15:07:33.699Z,10.98
2022-12-04T15:10:30.060Z,11.38
2022-12-04T15:12:57.511Z,10.77
2022-12-04T15:15:28.615Z,10.88
2022-12-04T15:18:18.132Z,10.00
2022-12-04T15:20:49.201Z,11.57
2022-12-04T15:23:34.278Z,10.98
2022-12-04T15:26:23.342Z,10.82
2022-12-04T15:29:01.689Z,11.50
2022-12-04T15:31:39.349Z,11.07
2022-12-04T15:34:15.327Z,11.55
2022-12-04T15:37:08.101Z,11.52
2022-12-04T15:39:38.654Z,10.50
2022-12-04T15:42:25.205Z,10.60
2022-12-04T15:45:02.441Z,10.88
2022-12-04T15:47:43.449Z,11.23
2022-12-04T15:50:32.530Z,9.88
2022-12-04T15:53:05.956Z,10.32
2022-12-04T15:55:54.898Z,11.63
2022-12-04T15:58:29.805Z,11.80
2022-12-04T16:01:06.815Z,10.98
2022-12-04T16:03:38.179Z,12.07
2022-12-04T16:06:25.269Z,12.23
2022-12-04T16:09:01.122Z,13.32
2022-12-04T16:11:36.098Z,11.80
2022-12-04T16:14:08.689Z,12.40
2022-12-04T16:16:49.080Z,14.98
2022-12-04T16:19:25.690Z,12.50
2022-12-04T16:21:53.647Z,11.35
2022-12-04T16:24:22.294Z,13.13
2022-12-04T16:26:57.626Z,12.68
2022-12-04T16:29:25.566Z,11.50
2022-12-04T16:32:03.231Z,12.02
2022-12-04T16:34:31.788Z,11.63
2022-12-04T16:37:00.460Z,12.98
2022-12-04T16:39:28.447Z,11.73
2022-12-04T16:41:55.893Z,12.18
2022-12-04T16:44:23.814Z,11.35
2022-12-04T16:46:52.588Z,12.40
2022-12-04T16:49:20.163Z,11.18
2022-12-04T16:51:51.607Z,12.93
2022-12-04T16:54:21.789Z,12.15
2022-12-04T16:56:49.748Z,12.57
2022-12-04T16:59:17.383Z,11.55
2022-12-04T17:01:49.091Z,12.52
2022-12-04T17:04:18.554Z,12.52
2022-12-04T17:06:46.876Z,12.90
2022-12-04T17:09:15.611Z,12.77
2022-12-04T17:11:45.568Z,12.70
2022-12-04T17:14:16.156Z,11.15
2022-12-04T17:16:45.846Z,12.45
2022-12-04T17:19:14.721Z,13.13
2022-12-04T17:21:42.356Z,14.43
2022-12-04T17:24:10.426Z,12.85
2022-12-04T17:26:38.548Z,12.60
2022-12-04T17:29:05.991Z,12.13
2022-12-04T17:31:33.597Z,13.32
2022-12-04T17:34:02.807Z,13.25
2022-12-04T17:36:35.256Z,13.50
2022-12-04T17:39:03.309Z,13.57
2022-12-04T17:41:31.238Z,14.48
2022-12-04T17:44:01.726Z,15.05
2022-12-04T17:46:29.734Z,12.98
2022-12-04T17:49:01.579Z,14.45
2022-12-04T17:51:32.731Z,12.90
2022-12-04T17:54:00.158Z,12.88
2022-12-04T17:56:29.282Z,12.80
2022-12-04T17:58:58.132Z,11.57
2022-12-04T18:01:29.975Z,13.70
2022-12-04T18:04:06.986Z,11.90
2022-12-04T18:06:37.788Z,12.48
2022-12-04T18:09:07.343Z,13.20
2022-12-04T18:11:36.959Z,13.80
2022-12-04T18:14:12.894Z,13.85
2022-12-04T18:16:49.565Z,13.20
2022-12-04T18:19:17.521Z,14.57
2022-12-04T18:21:45.090Z,14.05
2022-12-04T18:24:14.694Z,14.55
2022-12-04T18:26:45.348Z,14.80
2022-12-04T18:29:16.284Z,14.40
2022-12-04T18:31:44.336Z,14.43
2022-12-04T18:34:12.494Z,14.77
2022-12-04T18:36:42.894Z,15.32
2022-12-04T18:39:18.562Z,16.00
2022-12-04T18:41:47.554Z,14.43
2022-12-04T18:44:17.076Z,17.00
2022-12-04T18:46:45.095Z,15.75
2022-12-04T18:49:14.337Z,15.02
2022-12-04T18:51:49.167Z,14.65
2022-12-04T18:54:23.351Z,15.77
2022-12-04T18:56:52.663Z,14.73
2022-12-04T18:59:25.643Z,15.77
2022-12-04T19:01:54.755Z,15.30
2022-12-04T19:04:24.551Z,14.32
2022-12-04T19:06:55.067Z,14.57
2022-12-04T19:09:47.135Z,14.57
2022-12-04T19:12:14.435Z,14.20
2022-12-04T19:14:45.976Z,14.02
2022-12-04T19:17:14.222Z,13.80
2022-12-04T19:19:43.643Z,14.63
2022-12-04T19:22:11.677Z,14.63
2022-12-04T19:24:40.071Z,14.25
2022-12-04T19:27:12.387Z,14.52
2022-12-04T19:29:42.103Z,14.45
2022-12-04T19:32:12.644Z,15.40
2022-12-04T19:34:41.372Z,14.30
2022-12-04T19:37:09.460Z,13.63
2022-12-04T19:39:38.880Z,15.20
2022-12-04T19:42:08.124Z,14.25
2022-12-04T19:44:52.236Z,14.95
2022-12-04T19:47:20.368Z,12.50
2022-12-04T19:49:48.934Z,14.57
2022-12-04T19:52:17.842Z,13.38
2022-12-04T19:54:47.948Z,14.45
2022-12-04T19:57:16.961Z,15.40
2022-12-04T19:59:46.812Z,15.32
2022-12-04T20:02:18.291Z,14.25
2022-12-04T20:04:55.549Z,14.52
2022-12-04T20:07:25.354Z,13.48
2022-12-04T20:09:55.790Z,14.13
2022-12-04T20:12:25.349Z,15.70
2022-12-04T20:14:54.989Z,16.15
2022-12-04T20:17:23.121Z,16.60
2022-12-04T20:19:52.036Z,14.35
2022-12-04T20:22:21.506Z,15.05
2022-12-04T20:24:49.559Z,14.40
2022-12-04T20:27:17.750Z,16.30
2022-12-04T20:29:45.544Z,15.43
2022-12-04T20:32:13.903Z,14.88
2022-12-04T20:34:43.807Z,15.07
2022-12-04T20:37:11.929Z,13.77
2022-12-04T20:39:40.979Z,14.90
2022-12-04T20:42:10.481Z,14.95
2022-12-04T20:44:38.364Z,14.52
2022-12-04T20:47:06.218Z,14.70
2022-12-04T20:49:34.751Z,13.93
2022-12-04T20:52:03.001Z,14.23
2022-12-04T20:54:30.444Z,16.00
2022-12-04T20:56:58.243Z,15.55
2022-12-04T20:59:27.424Z,14.15
2022-12-04T21:01:56.822Z,15.68
2022-12-04T21:04:24.553Z,15.10
2022-12-04T21:06:52.398Z,14.57
2022-12-04T21:09:23.494Z,14.55
2022-12-04T21:11:55.055Z,14.02
2022-12-04T21:14:50.958Z,14.85
2022-12-04T21:17:19.738Z,15.00
2022-12-04T21:19:49.849Z,14.48
2022-12-04T21:22:18.718Z,14.07
2022-12-04T21:24:47.440Z,13.82
2022-12-04T21:27:20.472Z,14.48
2022-12-04T21:29:48.434Z,14.60
2022-12-04T21:32:15.994Z,13.70
2022-12-04T21:34:43.169Z,13.48
2022-12-04T21:37:10.174Z,14.30
2022-12-04T21:39:37.473Z,13.07
2022-12-04T21:42:23.306Z,13.73
2022-12-04T21:44:50.302Z,14.75
2022-12-04T21:47:17.322Z,13.35
2022-12-04T21:49:44.316Z,12.98
2022-12-04T21:52:11.294Z,12.25
2022-12-04T21:54:38.342Z,13.85
2022-12-04T21:57:05.342Z,11.63
2022-12-04T21:59:32.472Z,11.85
2022-12-04T22:01:59.576Z,12.02
2022-12-04T22:04:27.045Z,10.25
2022-12-04T22:06:54.048Z,10.88
2022-12-04T22:09:21.134Z,11.25
2022-12-04T22:11:48.255Z,11.50
2022-12-04T22:14:15.412Z,10.93
2022-12-04T22:16:43.419Z,10.75
2022-12-04T22:19:12.251Z,10.90
2022-12-04T22:21:39.900Z,10.60
2022-12-04T22:24:07.520Z,9.80
2022-12-04T22:26:34.627Z,10.25
2022-12-04T22:29:03.161Z,9.90
2022-12-04T22:31:32.553Z,10.00
2022-12-04T22:34:01.587Z,9.30
2022-12-04T22:36:32.863Z,10.02
2022-12-04T22:39:15.482Z,9.55
2022-12-04T22:41:42.561Z,9.63
2022-12-04T22:44:09.526Z,9.40
2022-12-04T22:46:36.612Z,10.10
2022-12-04T22:49:03.743Z,9.98
2022-12-04T22:51:30.911Z,9.90
2022-12-04T22:53:58.616Z,9.85
2022-12-04T22:56:31.181Z,9.82
2022-12-04T22:58:59.599Z,9.88
2022-12-04T23:01:31.554Z,9.55
2022-12-04T23:03:59.687Z,10.10
2022-12-04T23:06:29.013Z,9.05
2022-12-04T23:09:13.011Z,9.65
2022-12-04T23:11:40.903Z,9.43
2022-12-04T23:14:11.586Z,8.35
2022-12-04T23:16:40.164Z,9.57
2022-12-04T23:19:09.472Z,10.23
2022-12-04T23:21:36.434Z,9.50
2022-12-04T23:24:04.019Z,8.95
2022-12-04T23:26:42.587Z,10.30
2022-12-04T23:29:29.620Z,8.52
2022-12-04T23:31:57.487Z,8.98
2022-12-04T23:34:24.756Z,8.25
2022-12-04T23:36:51.708Z,9.60
2022-12-04T23:39:18.666Z,9.25
2022-12-04T23:41:45.655Z,8.35
2022-12-04T23:44:12.678Z,9.55
2022-12-04T23:46:40.120Z,9.15
2022-12-04T23:49:07.101Z,8.45
2022-12-04T23:51:34.105Z,9.43
2022-12-04T23:54:01.161Z,8.40
2022-12-04T23:56:28.948Z,7.95
2022-12-04T23:58:58.472Z,8.15
